createdAt,value
2018-06-07T00:00:10.103Z,99.90
2018-06-07T00:02:39.507Z,99.90
2018-06-07T00:05:08.599Z,99.90
2018-06-07T00:07:37.690Z,99.90
2018-06-07T00:10:06.858Z,99.90
2018-06-07T00:12:35.942Z,99.90
2018-06-07T00:15:05.035Z,99.90
2018-06-07T00:17:34.122Z,99.90
2018-06-07T00:20:03.185Z,99.90
2018-06-07T00:22:32.251Z,99.90
2018-06-07T00:25:01.370Z,99.90
2018-06-07T00:27:30.661Z,99.90
2018-06-07T00:29:59.727Z,99.90
2018-06-07T00:32:28.889Z,99.90
2018-06-07T00:34:57.982Z,99.90
2018-06-07T00:37:27.086Z,99.90
2018-06-07T00:39:56.166Z,99.90
2018-06-07T00:42:25.299Z,99.90
2018-06-07T00:44:54.376Z,99.90
2018-06-07T00:47:23.431Z,99.90
2018-06-07T00:49:52.609Z,99.90
2018-06-07T00:52:21.711Z,99.90
2018-06-07T00:54:50.878Z,99.90
2018-06-07T00:57:20.699Z,99.90
2018-06-07T00:59:49.833Z,99.90
2018-06-07T01:02:18.995Z,99.90
2018-06-07T01:04:48.102Z,99.90
2018-06-07T01:07:17.215Z,99.90
2018-06-07T01:09:47.002Z,99.90
2018-06-07T01:12:16.073Z,99.90
2018-06-07T01:14:45.211Z,99.90
2018-06-07T01:17:14.307Z,99.90
2018-06-07T01:19:43.374Z,99.90
2018-06-07T01:22:12.430Z,99.90
2018-06-07T01:24:42.552Z,99.90
2018-06-07T01:27:12.251Z,99.90
2018-06-07T01:29:58.416Z,99.90
2018-06-07T01:33:00.647Z,99.90
2018-06-07T01:35:29.730Z,99.90
2018-06-07T01:38:15.739Z,99.90
2018-06-07T01:40:44.846Z,99.90
2018-06-07T01:43:13.916Z,99.90
2018-06-07T01:45:42.987Z,99.90
2018-06-07T01:48:12.141Z,99.90
2018-06-07T01:50:41.274Z,99.90
2018-06-07T01:53:10.394Z,99.90
2018-06-07T01:55:39.542Z,99.90
2018-06-07T01:58:08.620Z,99.90
2018-06-07T02:00:38.503Z,99.90
2018-06-07T02:03:07.598Z,99.90
2018-06-07T02:05:36.691Z,99.90
2018-06-07T02:08:06.447Z,99.90
2018-06-07T02:10:35.530Z,99.90
2018-06-07T02:13:04.687Z,99.90
2018-06-07T02:15:33.819Z,99.90
2018-06-07T02:18:02.935Z,99.90
2018-06-07T02:20:32.003Z,99.90
2018-06-07T02:23:01.134Z,99.90
2018-06-07T02:25:30.207Z,99.90
2018-06-07T02:27:59.328Z,99.90
2018-06-07T02:30:28.438Z,99.90
2018-06-07T02:32:57.554Z,99.90
2018-06-07T02:35:26.655Z,99.90
2018-06-07T02:37:56.649Z,99.90
2018-06-07T02:40:26.407Z,99.90
2018-06-07T02:42:55.543Z,99.90
2018-06-07T02:45:24.662Z,99.90
2018-06-07T02:47:53.803Z,99.90
2018-06-07T02:50:22.886Z,99.90
2018-06-07T02:52:52.883Z,99.90
2018-06-07T02:55:21.959Z,99.90
2018-06-07T02:57:51.035Z,99.90
2018-06-07T03:00:20.152Z,99.90
2018-06-07T03:02:50.047Z,99.90
2018-06-07T03:05:19.134Z,99.90
2018-06-07T03:07:48.259Z,99.90
2018-06-07T03:10:17.333Z,99.90
2018-06-07T03:12:46.418Z,99.90
2018-06-07T03:15:15.543Z,99.90
2018-06-07T03:17:44.615Z,99.90
2018-06-07T03:20:13.694Z,99.90
2018-06-07T03:22:43.603Z,99.90
2018-06-07T03:25:12.698Z,99.90
2018-06-07T03:27:41.759Z,99.90
2018-06-07T03:30:10.897Z,99.90
2018-06-07T03:32:39.983Z,99.90
2018-06-07T03:35:09.066Z,99.90
2018-06-07T03:37:38.178Z,99.90
2018-06-07T03:40:08.022Z,99.90
2018-06-07T03:42:37.190Z,99.90
2018-06-07T03:45:06.322Z,99.90
2018-06-07T03:47:35.446Z,99.90
2018-06-07T03:50:05.342Z,99.90
2018-06-07T03:52:34.472Z,99.90
2018-06-07T03:55:03.573Z,99.90
2018-06-07T03:57:32.656Z,99.90
2018-06-07T04:00:01.782Z,99.90
2018-06-07T04:02:30.844Z,99.90
2018-06-07T04:05:00.715Z,99.90
2018-06-07T04:07:29.796Z,99.90
2018-06-07T04:09:58.891Z,99.90
2018-06-07T04:12:27.967Z,99.90
2018-06-07T04:14:57.063Z,99.90
2018-06-07T04:17:26.160Z,99.90
2018-06-07T04:19:55.261Z,99.90
2018-06-07T04:22:24.363Z,99.90
2018-06-07T04:24:53.466Z,99.90
2018-06-07T04:27:22.563Z,99.90
2018-06-07T04:29:52.450Z,99.90
2018-06-07T04:32:21.591Z,99.90
2018-06-07T04:34:50.683Z,99.90
2018-06-07T04:37:19.759Z,99.90
2018-06-07T04:39:48.894Z,99.90
2018-06-07T04:42:18.362Z,99.90
2018-06-07T04:44:47.443Z,99.90
2018-06-07T04:47:16.768Z,99.90
2018-06-07T04:49:45.835Z,99.90
2018-06-07T04:52:14.935Z,99.90
2018-06-07T04:54:44.254Z,99.90
2018-06-07T04:57:13.395Z,99.90
2018-06-07T04:59:43.427Z,99.90
2018-06-07T05:02:13.286Z,99.90
2018-06-07T05:04:42.381Z,99.90
2018-06-07T05:07:11.543Z,99.90
2018-06-07T05:09:40.695Z,99.90
2018-06-07T05:12:10.430Z,99.90
2018-06-07T05:14:39.554Z,99.90
2018-06-07T05:17:08.639Z,99.90
2018-06-07T05:19:37.771Z,99.90
2018-06-07T05:22:11.722Z,99.90
2018-06-07T05:24:40.911Z,99.90
2018-06-07T05:27:10.139Z,99.90
2018-06-07T05:29:39.871Z,99.90
2018-06-07T05:32:09.010Z,99.90
2018-06-07T05:34:38.055Z,99.90
2018-06-07T05:37:07.335Z,99.90
2018-06-07T05:39:36.451Z,99.90
2018-06-07T05:42:06.194Z,99.90
2018-06-07T05:44:35.671Z,99.90
2018-06-07T05:47:05.472Z,99.90
2018-06-07T05:49:35.313Z,99.90
2018-06-07T05:52:04.985Z,99.90
2018-06-07T05:54:34.175Z,99.90
2018-06-07T05:57:03.251Z,99.90
2018-06-07T06:02:01.668Z,99.90
2018-06-07T06:04:31.934Z,99.90
2018-06-07T06:07:01.086Z,99.90
2018-06-07T06:09:30.235Z,99.90
2018-06-07T06:11:59.319Z,99.90
2018-06-07T06:14:28.429Z,99.90
2018-06-07T06:16:57.506Z,99.90
2018-06-07T06:19:26.579Z,99.90
2018-06-07T06:21:56.450Z,99.90
2018-06-07T06:24:25.619Z,99.90
2018-06-07T06:26:55.532Z,99.90
2018-06-07T06:29:24.705Z,99.90
2018-06-07T06:31:53.753Z,99.90
2018-06-07T06:34:22.848Z,98.70
2018-06-07T06:36:52.119Z,98.70
2018-06-07T06:39:21.719Z,99.00
2018-06-07T06:41:52.051Z,99.90
2018-06-07T06:44:21.146Z,99.90
2018-06-07T06:46:50.830Z,99.90
2018-06-07T06:49:20.603Z,99.20
2018-06-07T06:51:50.563Z,98.90
2018-06-07T06:54:20.390Z,97.50
2018-06-07T06:56:50.132Z,97.40
2018-06-07T06:59:19.391Z,98.10
2018-06-07T07:01:49.278Z,99.20
2018-06-07T07:04:18.496Z,99.50
2018-06-07T07:06:47.986Z,99.20
2018-06-07T07:09:17.115Z,99.70
2018-06-07T07:11:46.374Z,99.30
2018-06-07T07:14:15.690Z,99.90
2018-06-07T07:19:14.530Z,99.90
2018-06-07T07:21:44.443Z,99.90
2018-06-07T07:24:13.603Z,99.90
2018-06-07T07:26:42.720Z,99.90
2018-06-07T07:29:11.800Z,99.90
2018-06-07T07:31:40.887Z,99.90
2018-06-07T07:34:10.235Z,99.90
2018-06-07T07:36:39.953Z,99.90
2018-06-07T07:39:09.751Z,99.90
2018-06-07T07:41:38.883Z,99.90
2018-06-07T07:44:07.950Z,99.90
2018-06-07T07:46:37.038Z,99.90
2018-06-07T07:49:06.164Z,99.90
2018-06-07T07:51:35.500Z,99.90
2018-06-07T07:54:04.776Z,99.90
2018-06-07T07:56:33.854Z,99.90
2018-06-07T07:59:02.930Z,99.90
2018-06-07T08:01:32.227Z,99.90
2018-06-07T08:04:01.380Z,99.90
2018-06-07T08:06:30.456Z,99.90
2018-06-07T08:08:59.613Z,99.90
2018-06-07T08:11:28.949Z,99.90
2018-06-07T08:13:58.638Z,99.90
2018-06-07T08:16:27.891Z,99.90
2018-06-07T08:18:57.094Z,99.90
2018-06-07T08:23:55.855Z,99.90
2018-06-07T08:26:25.191Z,99.90
2018-06-07T08:28:54.310Z,99.90
2018-06-07T08:31:23.523Z,99.90
2018-06-07T08:33:53.101Z,99.90
2018-06-07T08:36:23.227Z,99.90
2018-06-07T08:38:52.498Z,99.90
2018-06-07T08:41:21.663Z,99.90
2018-06-07T08:43:51.197Z,99.90
2018-06-07T08:46:20.314Z,99.90
2018-06-07T08:48:49.381Z,99.90
2018-06-07T08:51:18.562Z,99.90
2018-06-07T08:53:49.122Z,99.90
2018-06-07T08:56:18.354Z,99.90
2018-06-07T08:58:48.307Z,99.90
2018-06-07T09:01:17.456Z,99.90
2018-06-07T09:03:46.723Z,99.90
2018-06-07T09:06:15.822Z,99.90
2018-06-07T09:08:45.053Z,99.90
2018-06-07T09:11:14.278Z,99.90
2018-06-07T09:13:44.990Z,99.90
2018-06-07T09:16:14.137Z,99.90
2018-06-07T09:18:43.247Z,99.60
2018-06-07T09:21:12.387Z,98.90
2018-06-07T09:23:41.492Z,99.20
2018-06-07T09:26:10.683Z,98.50
2018-06-07T09:28:39.802Z,96.70
2018-06-07T09:31:08.939Z,95.60
2018-06-07T09:33:38.829Z,94.40
2018-06-07T09:36:07.966Z,94.90
2018-06-07T09:38:37.035Z,93.40
2018-06-07T09:41:06.731Z,93.00
2018-06-07T09:43:35.839Z,93.00
2018-06-07T09:46:05.094Z,92.70
2018-06-07T09:48:34.247Z,92.70
2018-06-07T09:51:04.695Z,93.10
2018-06-07T09:53:34.091Z,93.70
2018-06-07T09:56:04.522Z,95.30
2018-06-07T09:58:33.632Z,95.50
2018-06-07T10:01:02.975Z,95.60
2018-06-07T10:03:33.047Z,94.80
2018-06-07T10:08:31.898Z,94.40
2018-06-07T10:11:01.029Z,94.70
2018-06-07T10:13:30.307Z,94.50
2018-06-07T10:15:59.994Z,95.10
2018-06-07T10:18:29.083Z,94.80
2018-06-07T10:20:58.251Z,95.00
2018-06-07T10:23:27.351Z,95.30
2018-06-07T10:25:56.450Z,95.90
2018-06-07T10:28:26.047Z,96.10
2018-06-07T10:30:55.155Z,94.30
2018-06-07T10:33:24.499Z,93.50
2018-06-07T10:35:55.034Z,93.00
2018-06-07T10:38:24.238Z,92.80
2018-06-07T10:40:53.386Z,92.50
2018-06-07T10:43:22.565Z,91.90
2018-06-07T10:45:52.067Z,92.70
2018-06-07T10:48:21.562Z,92.80
2018-06-07T10:50:50.711Z,93.70
2018-06-07T10:53:21.080Z,93.70
2018-06-07T10:55:50.610Z,94.40
2018-06-07T11:00:49.660Z,94.50
2018-06-07T11:03:19.803Z,94.10
2018-06-07T11:05:49.537Z,94.30
2018-06-07T11:08:19.766Z,93.20
2018-06-07T11:10:48.967Z,93.00
2018-06-07T11:13:18.335Z,92.80
2018-06-07T11:15:48.834Z,94.30
2018-06-07T11:18:18.792Z,95.70
2018-06-07T11:20:48.057Z,95.00
2018-06-07T11:23:17.178Z,94.60
2018-06-07T11:25:46.295Z,94.40
2018-06-07T11:28:15.422Z,93.90
2018-06-07T11:33:14.307Z,92.60
2018-06-07T11:35:44.295Z,91.80
2018-06-07T11:38:14.031Z,91.30
2018-06-07T11:40:43.195Z,90.60
2018-06-07T11:43:12.263Z,89.80
2018-06-07T11:45:41.535Z,90.00
2018-06-07T11:48:11.076Z,91.30
2018-06-07T11:50:40.323Z,90.40
2018-06-07T11:53:10.235Z,86.60
2018-06-07T11:55:40.700Z,89.00
2018-06-07T11:58:09.840Z,88.80
2018-06-07T12:00:38.986Z,90.40
2018-06-07T12:03:09.000Z,91.40
2018-06-07T12:05:38.153Z,92.00
2018-06-07T12:08:07.402Z,90.70
2018-06-07T12:10:36.500Z,88.60
2018-06-07T12:13:06.123Z,90.00
2018-06-07T12:15:35.259Z,84.40
2018-06-07T12:18:04.851Z,81.00
2018-06-07T12:20:34.182Z,78.40
2018-06-07T12:23:03.527Z,79.80
2018-06-07T12:25:33.389Z,78.60
2018-06-07T12:28:02.879Z,78.50
2018-06-07T12:30:32.359Z,78.70
2018-06-07T12:33:01.543Z,81.80
2018-06-07T12:35:30.786Z,84.80
2018-06-07T12:38:02.160Z,87.90
2018-06-07T12:40:31.369Z,88.00
2018-06-07T12:43:00.399Z,87.00
2018-06-07T12:45:29.479Z,86.30
2018-06-07T12:47:58.567Z,86.80
2018-06-07T12:50:28.324Z,85.90
2018-06-07T12:52:57.718Z,86.50
2018-06-07T12:55:26.855Z,84.50
2018-06-07T12:57:55.938Z,84.00
2018-06-07T13:00:25.020Z,83.00
2018-06-07T13:02:54.930Z,82.90
2018-06-07T13:05:24.706Z,78.40
2018-06-07T13:07:53.995Z,76.60
2018-06-07T13:10:23.399Z,75.00
2018-06-07T13:12:52.470Z,75.10
2018-06-07T13:15:21.570Z,75.30
2018-06-07T13:17:52.122Z,75.80
2018-06-07T13:20:21.622Z,76.40
2018-06-07T13:22:50.715Z,78.60
2018-06-07T13:25:20.264Z,81.20
2018-06-07T13:27:49.449Z,82.40
2018-06-07T13:30:18.679Z,85.40
2018-06-07T13:32:48.371Z,85.80
2018-06-07T13:35:17.467Z,86.00
2018-06-07T13:37:46.606Z,84.00
2018-06-07T13:40:16.331Z,85.90
2018-06-07T13:42:45.572Z,86.80
2018-06-07T13:45:15.338Z,87.20
2018-06-07T13:47:45.284Z,90.10
2018-06-07T13:52:45.474Z,91.70
2018-06-07T13:55:14.887Z,91.80
2018-06-07T13:57:44.071Z,91.10
2018-06-07T14:00:13.133Z,90.70
2018-06-07T14:02:42.239Z,88.40
2018-06-07T14:05:11.400Z,87.00
2018-06-07T14:07:40.483Z,87.30
2018-06-07T14:10:09.586Z,88.30
2018-06-07T14:12:38.671Z,88.30
2018-06-07T14:15:08.459Z,87.70
2018-06-07T14:17:37.705Z,84.70
2018-06-07T14:20:06.790Z,83.20
2018-06-07T14:25:04.918Z,83.30
2018-06-07T14:27:33.996Z,84.20
2018-06-07T14:30:03.087Z,85.50
2018-06-07T14:32:32.192Z,85.20
2018-06-07T14:35:01.279Z,83.30
2018-06-07T14:37:30.362Z,82.90
2018-06-07T14:39:59.608Z,84.70
2018-06-07T14:42:28.551Z,82.00
2018-06-07T14:44:57.636Z,81.20
2018-06-07T14:47:26.802Z,84.60
2018-06-07T14:49:55.899Z,87.70
2018-06-07T14:52:25.751Z,88.10
2018-06-07T14:54:54.906Z,88.30
2018-06-07T14:57:23.974Z,84.30
2018-06-07T14:59:53.063Z,82.70
2018-06-07T15:02:22.179Z,84.90
2018-06-07T15:04:51.282Z,84.80
2018-06-07T15:07:20.362Z,83.80
2018-06-07T15:09:49.614Z,82.50
2018-06-07T15:12:19.151Z,80.10
2018-06-07T15:14:48.239Z,79.90
2018-06-07T15:17:18.282Z,79.90
2018-06-07T15:19:47.555Z,85.50
2018-06-07T15:22:16.686Z,84.30
2018-06-07T15:24:45.818Z,86.30
2018-06-07T15:27:14.915Z,89.30
2018-06-07T15:29:44.003Z,90.60
2018-06-07T15:32:13.126Z,91.20
2018-06-07T15:34:42.206Z,91.10
2018-06-07T15:37:12.099Z,91.50
2018-06-07T15:39:41.210Z,91.40
2018-06-07T15:42:10.299Z,91.10
2018-06-07T15:44:39.438Z,91.00
2018-06-07T15:47:08.914Z,91.60
2018-06-07T15:49:38.550Z,91.00
2018-06-07T15:54:37.154Z,92.70
2018-06-07T15:57:07.076Z,92.60
2018-06-07T15:59:36.200Z,91.60
2018-06-07T16:02:05.283Z,90.80
2018-06-07T16:04:34.362Z,88.00
2018-06-07T16:07:04.006Z,86.80
2018-06-07T16:09:33.801Z,85.60
2018-06-07T16:12:03.608Z,85.90
2018-06-07T16:14:32.731Z,85.80
2018-06-07T16:17:02.079Z,86.70
2018-06-07T16:19:31.423Z,86.90
2018-06-07T16:22:00.731Z,89.00
2018-06-07T16:24:30.307Z,91.00
2018-06-07T16:26:59.482Z,91.50
2018-06-07T16:29:28.651Z,91.70
2018-06-07T16:31:57.919Z,91.70
2018-06-07T16:34:27.014Z,91.80
2018-06-07T16:36:56.484Z,92.30
2018-06-07T16:39:25.574Z,92.50
2018-06-07T16:41:54.778Z,93.00
2018-06-07T16:44:24.246Z,93.50
2018-06-07T16:46:53.347Z,94.10
2018-06-07T16:49:22.458Z,93.90
2018-06-07T16:51:52.455Z,93.50
2018-06-07T16:54:21.638Z,94.30
2018-06-07T16:56:52.010Z,94.10
2018-06-07T16:59:21.098Z,93.70
2018-06-07T17:01:50.322Z,94.20
2018-06-07T17:04:19.448Z,94.40
2018-06-07T17:06:48.606Z,95.30
2018-06-07T17:09:19.383Z,95.80
2018-06-07T17:11:48.454Z,96.20
2018-06-07T17:14:17.627Z,96.40
2018-06-07T17:16:47.423Z,96.90
2018-06-07T17:19:16.506Z,97.30
2018-06-07T17:21:45.606Z,97.40
2018-06-07T17:24:14.791Z,97.80
2018-06-07T17:26:43.859Z,98.30
2018-06-07T17:29:12.939Z,98.60
2018-06-07T17:31:43.317Z,99.10
2018-06-07T17:34:12.677Z,99.20
2018-06-07T17:36:41.803Z,99.30
2018-06-07T17:39:11.342Z,99.70
2018-06-07T17:41:41.022Z,99.90
2018-06-07T17:44:10.272Z,99.90
2018-06-07T17:46:39.808Z,99.90
2018-06-07T17:49:10.308Z,99.90
2018-06-07T17:51:39.752Z,99.90
2018-06-07T17:54:09.722Z,99.90
2018-06-07T17:56:38.976Z,99.90
2018-06-07T17:59:08.527Z,99.90
2018-06-07T18:01:37.809Z,99.90
2018-06-07T18:04:07.211Z,99.90
2018-06-07T18:06:36.848Z,99.90
2018-06-07T18:09:09.030Z,99.90
2018-06-07T18:11:38.215Z,99.90
2018-06-07T18:14:07.309Z,99.90
2018-06-07T18:16:36.407Z,99.90
2018-06-07T18:19:05.847Z,99.90
2018-06-07T18:21:35.441Z,99.90
2018-06-07T18:24:04.530Z,99.90
2018-06-07T18:26:33.683Z,99.90
2018-06-07T18:29:02.791Z,99.90
2018-06-07T18:31:32.636Z,99.90
2018-06-07T18:34:01.798Z,99.90
2018-06-07T18:36:30.875Z,99.90
2018-06-07T18:39:01.475Z,99.90
2018-06-07T18:41:31.554Z,99.90
2018-06-07T18:44:01.093Z,99.90
2018-06-07T18:46:30.379Z,99.90
2018-06-07T18:48:59.614Z,99.90
2018-06-07T18:51:29.850Z,99.90
2018-06-07T18:53:58.998Z,99.90
2018-06-07T18:56:28.110Z,99.90
2018-06-07T18:58:57.562Z,99.90
2018-06-07T19:01:26.867Z,99.90
2018-06-07T19:03:56.038Z,99.90
2018-06-07T19:06:25.705Z,99.90
2018-06-07T19:09:00.299Z,99.90
2018-06-07T19:11:29.542Z,99.90
2018-06-07T19:14:03.968Z,99.90
2018-06-07T19:16:33.104Z,99.90
2018-06-07T19:19:07.500Z,99.90
2018-06-07T19:21:37.419Z,99.90
2018-06-07T19:24:07.268Z,99.90
2018-06-07T19:26:43.259Z,99.90
2018-06-07T19:29:13.663Z,99.90
2018-06-07T19:31:48.798Z,99.90
2018-06-07T19:34:23.675Z,99.90
2018-06-07T19:36:53.632Z,99.90
2018-06-07T19:39:27.978Z,99.90
2018-06-07T19:42:04.654Z,99.90
2018-06-07T19:44:33.832Z,99.90
2018-06-07T19:47:04.186Z,99.90
2018-06-07T19:49:33.318Z,99.90
2018-06-07T19:52:02.570Z,99.90
2018-06-07T19:54:31.847Z,99.90
2018-06-07T19:57:01.753Z,99.90
2018-06-07T19:59:31.484Z,99.90
2018-06-07T20:02:00.747Z,99.90
2018-06-07T20:04:29.943Z,99.90
2018-06-07T20:06:59.435Z,99.90
2018-06-07T20:09:28.728Z,99.90
2018-06-07T20:11:58.338Z,99.90
2018-06-07T20:14:27.467Z,99.90
2018-06-07T20:16:56.562Z,99.90
2018-06-07T20:19:25.747Z,99.90
2018-06-07T20:21:55.180Z,99.90
2018-06-07T20:24:25.074Z,99.90
2018-06-07T20:26:54.214Z,99.90
2018-06-07T20:29:24.003Z,99.90
2018-06-07T20:31:53.076Z,99.90
2018-06-07T20:34:22.334Z,99.90
2018-06-07T20:36:51.483Z,99.90
2018-06-07T20:39:20.799Z,99.90
2018-06-07T20:41:51.019Z,99.90
2018-06-07T20:44:20.984Z,99.90
2018-06-07T20:46:50.271Z,99.90
2018-06-07T20:51:48.611Z,99.90
2018-06-07T20:54:17.735Z,99.90
2018-06-07T20:56:47.318Z,99.90
2018-06-07T20:59:16.551Z,99.90
2018-06-07T21:01:46.379Z,99.90
2018-06-07T21:04:15.675Z,99.90
2018-06-07T21:06:44.975Z,99.90
2018-06-07T21:09:14.782Z,99.90
2018-06-07T21:11:44.379Z,99.90
2018-06-07T21:14:13.503Z,99.90
2018-06-07T21:16:42.574Z,99.90
2018-06-07T21:19:11.682Z,99.90
2018-06-07T21:21:40.802Z,99.90
2018-06-07T21:24:11.770Z,99.90
2018-06-07T21:26:41.206Z,99.90
2018-06-07T21:29:10.491Z,99.90
2018-06-07T21:31:39.588Z,99.90
2018-06-07T21:34:08.706Z,99.90
2018-06-07T21:36:37.799Z,99.90
2018-06-07T21:39:09.374Z,99.90
2018-06-07T21:41:38.502Z,99.90
2018-06-07T21:44:08.532Z,99.90
2018-06-07T21:46:38.840Z,99.90
2018-06-07T21:49:08.108Z,99.90
2018-06-07T21:51:37.278Z,99.90
2018-06-07T21:54:06.545Z,99.90
2018-06-07T21:56:35.572Z,99.90
2018-06-07T21:59:05.483Z,99.90
2018-06-07T22:01:35.415Z,99.90
2018-06-07T22:04:04.982Z,99.90
2018-06-07T22:06:34.235Z,99.90
2018-06-07T22:09:03.945Z,99.90
2018-06-07T22:11:33.740Z,99.90
2018-06-07T22:14:03.021Z,99.90
2018-06-07T22:16:32.395Z,99.90
2018-06-07T22:19:02.298Z,99.90
2018-06-07T22:21:31.439Z,99.90
2018-06-07T22:24:01.255Z,99.90
2018-06-07T22:26:30.399Z,99.90
2018-06-07T22:28:59.483Z,99.90
2018-06-07T22:31:28.554Z,99.90
2018-06-07T22:33:57.650Z,99.90
2018-06-07T22:36:26.731Z,99.90
2018-06-07T22:38:55.843Z,99.90
2018-06-07T22:41:30.581Z,99.90
2018-06-07T22:43:59.743Z,99.90
2018-06-07T22:46:28.915Z,99.90
2018-06-07T22:48:58.022Z,99.90
2018-06-07T22:51:27.962Z,99.90
2018-06-07T22:53:57.074Z,99.90
2018-06-07T22:56:26.159Z,99.90
2018-06-07T22:58:55.299Z,99.90
2018-06-07T23:01:24.391Z,99.90
2018-06-07T23:03:54.179Z,99.90
2018-06-07T23:06:23.303Z,99.90
2018-06-07T23:08:52.408Z,99.90
2018-06-07T23:11:21.475Z,99.90
2018-06-07T23:13:50.566Z,99.90
2018-06-07T23:16:19.642Z,99.90
2018-06-07T23:18:48.763Z,99.90
2018-06-07T23:21:17.920Z,99.90
2018-06-07T23:23:47.015Z,99.90
2018-06-07T23:26:16.112Z,99.90
2018-06-07T23:28:45.242Z,99.90
2018-06-07T23:31:14.338Z,99.90
2018-06-07T23:33:43.426Z,99.90
2018-06-07T23:36:12.622Z,99.90
2018-06-07T23:38:42.283Z,99.90
2018-06-07T23:41:11.446Z,99.90
2018-06-07T23:43:40.527Z,99.90
2018-06-07T23:46:09.599Z,99.90
2018-06-07T23:48:38.719Z,99.90
2018-06-07T23:51:07.810Z,99.90
2018-06-07T23:53:36.882Z,99.90
2018-06-07T23:56:05.995Z,99.90
2018-06-07T23:58:35.144Z,99.90
